sensor_id;sensor_type;location;lat;lon;timestamp;P1;durP1;ratioP1;P2;durP2;ratioP2
74267;SDS011;62638;51.362;12.472;2022-11-14T00:01:53;30.77;;;11.30;;
74267;SDS011;62638;51.362;12.472;2022-11-14T00:04:19;34.65;;;12.43;;
74267;SDS011;62638;51.362;12.472;2022-11-14T00:06:44;25.33;;;11.13;;
74267;SDS011;62638;51.362;12.472;2022-11-14T00:09:09;28.08;;;13.15;;
74267;SDS011;62638;51.362;12.472;2022-11-14T00:11:35;29.83;;;12.32;;
74267;SDS011;62638;51.362;12.472;2022-11-14T00:14:00;24.33;;;11.13;;
74267;SDS011;62638;51.362;12.472;2022-11-14T00:16:25;28.23;;;10.07;;
74267;SDS011;62638;51.362;12.472;2022-11-14T00:18:51;23.08;;;10.80;;
74267;SDS011;62638;51.362;12.472;2022-11-14T00:21:17;31.83;;;12.43;;
74267;SDS011;62638;51.362;12.472;2022-11-14T00:23:42;31.52;;;10.73;;
74267;SDS011;62638;51.362;12.472;2022-11-14T00:26:08;22.95;;;10.43;;
74267;SDS011;62638;51.362;12.472;2022-11-14T00:28:33;23.98;;;10.90;;
74267;SDS011;62638;51.362;12.472;2022-11-14T00:30:59;22.20;;;10.27;;
74267;SDS011;62638;51.362;12.472;2022-11-14T00:33:24;21.98;;;10.13;;
74267;SDS011;62638;51.362;12.472;2022-11-14T00:35:50;30.20;;;11.40;;
74267;SDS011;62638;51.362;12.472;2022-11-14T00:38:16;16.70;;;7.22;;
74267;SDS011;62638;51.362;12.472;2022-11-14T00:40:42;17.50;;;8.18;;
74267;SDS011;62638;51.362;12.472;2022-11-14T00:43:07;23.43;;;10.70;;
74267;SDS011;62638;51.362;12.472;2022-11-14T00:45:32;21.00;;;8.43;;
74267;SDS011;62638;51.362;12.472;2022-11-14T00:47:58;30.53;;;10.93;;
74267;SDS011;62638;51.362;12.472;2022-11-14T00:50:23;9.70;;;6.07;;
74267;SDS011;62638;51.362;12.472;2022-11-14T00:52:48;22.17;;;9.80;;
74267;SDS011;62638;51.362;12.472;2022-11-14T00:55:13;29.65;;;11.18;;
74267;SDS011;62638;51.362;12.472;2022-11-14T00:57:39;31.30;;;12.50;;
74267;SDS011;62638;51.362;12.472;2022-11-14T01:00:04;16.50;;;9.33;;
74267;SDS011;62638;51.362;12.472;2022-11-14T01:02:30;25.45;;;12.52;;
74267;SDS011;62638;51.362;12.472;2022-11-14T01:04:56;25.33;;;12.45;;
74267;SDS011;62638;51.362;12.472;2022-11-14T01:07:21;22.93;;;12.07;;
74267;SDS011;62638;51.362;12.472;2022-11-14T01:09:46;28.97;;;11.80;;
74267;SDS011;62638;51.362;12.472;2022-11-14T01:12:11;25.90;;;12.97;;
74267;SDS011;62638;51.362;12.472;2022-11-14T01:14:38;26.10;;;10.27;;
74267;SDS011;62638;51.362;12.472;2022-11-14T01:17:04;22.25;;;9.98;;
74267;SDS011;62638;51.362;12.472;2022-11-14T01:19:29;27.53;;;10.50;;
74267;SDS011;62638;51.362;12.472;2022-11-14T01:21:55;19.60;;;8.73;;
74267;SDS011;62638;51.362;12.472;2022-11-14T01:24:20;20.77;;;9.40;;
74267;SDS011;62638;51.362;12.472;2022-11-14T01:26:45;27.02;;;11.63;;
74267;SDS011;62638;51.362;12.472;2022-11-14T01:29:11;24.27;;;11.73;;
74267;SDS011;62638;51.362;12.472;2022-11-14T01:31:36;29.63;;;10.27;;
74267;SDS011;62638;51.362;12.472;2022-11-14T01:34:01;29.03;;;11.60;;
74267;SDS011;62638;51.362;12.472;2022-11-14T01:36:27;22.57;;;10.13;;
74267;SDS011;62638;51.362;12.472;2022-11-14T01:38:52;22.48;;;9.35;;
74267;SDS011;62638;51.362;12.472;2022-11-14T01:41:18;19.80;;;9.00;;
74267;SDS011;62638;51.362;12.472;2022-11-14T01:43:44;25.95;;;10.90;;
74267;SDS011;62638;51.362;12.472;2022-11-14T01:48:51;21.45;;;9.40;;
74267;SDS011;62638;51.362;12.472;2022-11-14T01:51:20;21.95;;;9.18;;
74267;SDS011;62638;51.362;12.472;2022-11-14T01:53:59;14.85;;;7.55;;
74267;SDS011;62638;51.362;12.472;2022-11-14T01:56:47;19.40;;;9.52;;
74267;SDS011;62638;51.362;12.472;2022-11-14T01:59:19;21.65;;;9.45;;
74267;SDS011;62638;51.362;12.472;2022-11-14T02:01:49;15.02;;;7.00;;
74267;SDS011;62638;51.362;12.472;2022-11-14T02:04:23;19.70;;;10.00;;
74267;SDS011;62638;51.362;12.472;2022-11-14T02:06:53;16.23;;;7.20;;
74267;SDS011;62638;51.362;12.472;2022-11-14T02:09:21;13.57;;;8.55;;
74267;SDS011;62638;51.362;12.472;2022-11-14T02:11:46;19.73;;;9.27;;
74267;SDS011;62638;51.362;12.472;2022-11-14T02:14:14;20.20;;;7.45;;
74267;SDS011;62638;51.362;12.472;2022-11-14T02:16:40;21.52;;;10.82;;
74267;SDS011;62638;51.362;12.472;2022-11-14T02:19:06;24.05;;;9.27;;
74267;SDS011;62638;51.362;12.472;2022-11-14T02:21:32;19.20;;;7.88;;
74267;SDS011;62638;51.362;12.472;2022-11-14T02:23:57;19.73;;;9.73;;
74267;SDS011;62638;51.362;12.472;2022-11-14T02:26:22;18.10;;;8.40;;
74267;SDS011;62638;51.362;12.472;2022-11-14T02:28:48;18.80;;;8.18;;
74267;SDS011;62638;51.362;12.472;2022-11-14T02:31:14;27.63;;;10.80;;
74267;SDS011;62638;51.362;12.472;2022-11-14T02:33:40;30.27;;;11.00;;
74267;SDS011;62638;51.362;12.472;2022-11-14T02:36:05;22.50;;;8.90;;
74267;SDS011;62638;51.362;12.472;2022-11-14T02:38:31;19.13;;;8.15;;
74267;SDS011;62638;51.362;12.472;2022-11-14T02:41:00;24.55;;;10.23;;
74267;SDS011;62638;51.362;12.472;2022-11-14T02:43:26;23.92;;;9.48;;
74267;SDS011;62638;51.362;12.472;2022-11-14T02:45:52;13.48;;;7.65;;
74267;SDS011;62638;51.362;12.472;2022-11-14T02:48:17;23.13;;;10.17;;
74267;SDS011;62638;51.362;12.472;2022-11-14T02:50:43;26.60;;;9.70;;
74267;SDS011;62638;51.362;12.472;2022-11-14T02:53:08;27.80;;;9.73;;
74267;SDS011;62638;51.362;12.472;2022-11-14T02:55:34;20.45;;;8.48;;
74267;SDS011;62638;51.362;12.472;2022-11-14T02:57:59;15.75;;;7.90;;
74267;SDS011;62638;51.362;12.472;2022-11-14T03:00:24;18.20;;;7.45;;
74267;SDS011;62638;51.362;12.472;2022-11-14T03:02:51;22.48;;;9.30;;
74267;SDS011;62638;51.362;12.472;2022-11-14T03:05:17;15.77;;;7.82;;
74267;SDS011;62638;51.362;12.472;2022-11-14T03:07:43;20.58;;;9.52;;
74267;SDS011;62638;51.362;12.472;2022-11-14T03:10:08;23.08;;;8.68;;
74267;SDS011;62638;51.362;12.472;2022-11-14T03:12:35;21.45;;;9.45;;
74267;SDS011;62638;51.362;12.472;2022-11-14T03:15:00;15.93;;;5.72;;
74267;SDS011;62638;51.362;12.472;2022-11-14T03:17:29;19.98;;;7.25;;
74267;SDS011;62638;51.362;12.472;2022-11-14T03:19:55;19.13;;;7.55;;
74267;SDS011;62638;51.362;12.472;2022-11-14T03:22:21;18.20;;;8.97;;
74267;SDS011;62638;51.362;12.472;2022-11-14T03:24:46;17.10;;;8.40;;
74267;SDS011;62638;51.362;12.472;2022-11-14T03:27:11;18.17;;;8.47;;
74267;SDS011;62638;51.362;12.472;2022-11-14T03:29:37;17.50;;;7.35;;
74267;SDS011;62638;51.362;12.472;2022-11-14T03:32:02;15.67;;;8.07;;
74267;SDS011;62638;51.362;12.472;2022-11-14T03:34:27;19.08;;;9.18;;
74267;SDS011;62638;51.362;12.472;2022-11-14T03:36:53;16.25;;;8.52;;
74267;SDS011;62638;51.362;12.472;2022-11-14T03:39:18;22.20;;;9.73;;
74267;SDS011;62638;51.362;12.472;2022-11-14T03:41:43;18.50;;;9.07;;
74267;SDS011;62638;51.362;12.472;2022-11-14T03:44:09;15.43;;;7.40;;
74267;SDS011;62638;51.362;12.472;2022-11-14T03:46:34;17.10;;;7.70;;
74267;SDS011;62638;51.362;12.472;2022-11-14T03:48:59;15.20;;;7.90;;
74267;SDS011;62638;51.362;12.472;2022-11-14T03:51:25;13.40;;;6.40;;
74267;SDS011;62638;51.362;12.472;2022-11-14T03:53:50;17.50;;;7.60;;
74267;SDS011;62638;51.362;12.472;2022-11-14T03:56:15;22.40;;;8.45;;
74267;SDS011;62638;51.362;12.472;2022-11-14T03:58:41;18.38;;;6.78;;
74267;SDS011;62638;51.362;12.472;2022-11-14T04:01:06;17.60;;;6.80;;
74267;SDS011;62638;51.362;12.472;2022-11-14T04:03:31;17.38;;;6.72;;
74267;SDS011;62638;51.362;12.472;2022-11-14T04:05:57;18.17;;;8.15;;
74267;SDS011;62638;51.362;12.472;2022-11-14T04:08:22;17.57;;;6.80;;
74267;SDS011;62638;51.362;12.472;2022-11-14T04:10:47;16.60;;;7.05;;
74267;SDS011;62638;51.362;12.472;2022-11-14T04:13:13;16.90;;;7.70;;
74267;SDS011;62638;51.362;12.472;2022-11-14T04:15:39;15.52;;;7.45;;
74267;SDS011;62638;51.362;12.472;2022-11-14T04:18:04;18.85;;;7.35;;
74267;SDS011;62638;51.362;12.472;2022-11-14T04:20:30;13.27;;;6.35;;
74267;SDS011;62638;51.362;12.472;2022-11-14T04:22:55;16.63;;;6.53;;
74267;SDS011;62638;51.362;12.472;2022-11-14T04:25:20;20.17;;;7.25;;
74267;SDS011;62638;51.362;12.472;2022-11-14T04:27:46;17.00;;;8.73;;
74267;SDS011;62638;51.362;12.472;2022-11-14T04:30:11;26.57;;;10.17;;
74267;SDS011;62638;51.362;12.472;2022-11-14T04:32:36;13.90;;;7.07;;
74267;SDS011;62638;51.362;12.472;2022-11-14T04:35:02;19.67;;;7.73;;
74267;SDS011;62638;51.362;12.472;2022-11-14T04:37:27;16.42;;;7.22;;
74267;SDS011;62638;51.362;12.472;2022-11-14T04:39:52;15.07;;;6.13;;
74267;SDS011;62638;51.362;12.472;2022-11-14T04:42:22;13.50;;;6.80;;
74267;SDS011;62638;51.362;12.472;2022-11-14T04:44:48;21.00;;;6.85;;
74267;SDS011;62638;51.362;12.472;2022-11-14T04:47:14;17.63;;;6.68;;
74267;SDS011;62638;51.362;12.472;2022-11-14T04:49:39;19.30;;;7.45;;
74267;SDS011;62638;51.362;12.472;2022-11-14T04:52:04;12.47;;;6.57;;
74267;SDS011;62638;51.362;12.472;2022-11-14T04:54:30;13.55;;;6.88;;
74267;SDS011;62638;51.362;12.472;2022-11-14T04:56:55;20.77;;;8.17;;
74267;SDS011;62638;51.362;12.472;2022-11-14T04:59:20;18.00;;;7.50;;
74267;SDS011;62638;51.362;12.472;2022-11-14T05:01:46;13.57;;;7.20;;
74267;SDS011;62638;51.362;12.472;2022-11-14T05:04:11;12.00;;;6.55;;
74267;SDS011;62638;51.362;12.472;2022-11-14T05:06:36;16.35;;;8.90;;
74267;SDS011;62638;51.362;12.472;2022-11-14T05:09:02;21.25;;;9.20;;
74267;SDS011;62638;51.362;12.472;2022-11-14T05:11:27;19.83;;;8.50;;
74267;SDS011;62638;51.362;12.472;2022-11-14T05:13:52;33.50;;;10.55;;
74267;SDS011;62638;51.362;12.472;2022-11-14T05:16:18;24.80;;;10.10;;
74267;SDS011;62638;51.362;12.472;2022-11-14T05:18:43;18.43;;;8.63;;
74267;SDS011;62638;51.362;12.472;2022-11-14T05:21:11;22.45;;;10.93;;
74267;SDS011;62638;51.362;12.472;2022-11-14T05:23:37;22.70;;;8.60;;
74267;SDS011;62638;51.362;12.472;2022-11-14T05:26:04;28.15;;;9.50;;
74267;SDS011;62638;51.362;12.472;2022-11-14T05:28:34;24.85;;;9.63;;
74267;SDS011;62638;51.362;12.472;2022-11-14T05:31:02;18.80;;;8.40;;
74267;SDS011;62638;51.362;12.472;2022-11-14T05:33:29;25.42;;;8.93;;
74267;SDS011;62638;51.362;12.472;2022-11-14T05:35:55;34.83;;;10.20;;
74267;SDS011;62638;51.362;12.472;2022-11-14T05:38:20;18.63;;;8.45;;
74267;SDS011;62638;51.362;12.472;2022-11-14T05:40:46;20.45;;;9.23;;
74267;SDS011;62638;51.362;12.472;2022-11-14T05:43:11;16.38;;;8.68;;
74267;SDS011;62638;51.362;12.472;2022-11-14T05:45:36;22.57;;;10.60;;
74267;SDS011;62638;51.362;12.472;2022-11-14T05:48:02;17.65;;;8.30;;
74267;SDS011;62638;51.362;12.472;2022-11-14T05:50:27;18.13;;;8.40;;
74267;SDS011;62638;51.362;12.472;2022-11-14T05:52:52;18.52;;;9.30;;
74267;SDS011;62638;51.362;12.472;2022-11-14T05:55:18;17.07;;;8.57;;
74267;SDS011;62638;51.362;12.472;2022-11-14T05:57:43;15.37;;;7.47;;
74267;SDS011;62638;51.362;12.472;2022-11-14T06:00:08;18.90;;;8.67;;
74267;SDS011;62638;51.362;12.472;2022-11-14T06:02:34;14.98;;;8.13;;
74267;SDS011;62638;51.362;12.472;2022-11-14T06:04:59;20.17;;;8.43;;
74267;SDS011;62638;51.362;12.472;2022-11-14T06:07:25;20.83;;;8.27;;
74267;SDS011;62638;51.362;12.472;2022-11-14T06:09:50;18.63;;;7.43;;
74267;SDS011;62638;51.362;12.472;2022-11-14T06:12:15;19.93;;;8.47;;
74267;SDS011;62638;51.362;12.472;2022-11-14T06:14:41;20.80;;;9.03;;
74267;SDS011;62638;51.362;12.472;2022-11-14T06:17:06;22.43;;;9.23;;
74267;SDS011;62638;51.362;12.472;2022-11-14T06:19:31;20.10;;;8.60;;
74267;SDS011;62638;51.362;12.472;2022-11-14T06:21:56;17.80;;;9.07;;
74267;SDS011;62638;51.362;12.472;2022-11-14T06:24:22;15.20;;;7.53;;
74267;SDS011;62638;51.362;12.472;2022-11-14T06:26:47;27.83;;;9.63;;
74267;SDS011;62638;51.362;12.472;2022-11-14T06:29:12;25.00;;;9.40;;
74267;SDS011;62638;51.362;12.472;2022-11-14T06:31:38;22.30;;;8.70;;
74267;SDS011;62638;51.362;12.472;2022-11-14T06:34:03;21.23;;;7.63;;
74267;SDS011;62638;51.362;12.472;2022-11-14T06:36:29;29.00;;;11.05;;
74267;SDS011;62638;51.362;12.472;2022-11-14T06:38:54;18.70;;;8.83;;
74267;SDS011;62638;51.362;12.472;2022-11-14T06:41:20;23.40;;;10.03;;
74267;SDS011;62638;51.362;12.472;2022-11-14T06:43:47;22.08;;;9.73;;
74267;SDS011;62638;51.362;12.472;2022-11-14T06:46:15;15.80;;;8.20;;
74267;SDS011;62638;51.362;12.472;2022-11-14T06:51:08;12.10;;;6.72;;
74267;SDS011;62638;51.362;12.472;2022-11-14T06:53:36;17.92;;;8.35;;
74267;SDS011;62638;51.362;12.472;2022-11-14T06:58:35;20.83;;;7.55;;
74267;SDS011;62638;51.362;12.472;2022-11-14T07:01:10;24.75;;;7.85;;
74267;SDS011;62638;51.362;12.472;2022-11-14T07:03:37;19.65;;;9.02;;
74267;SDS011;62638;51.362;12.472;2022-11-14T07:06:03;23.95;;;8.93;;
74267;SDS011;62638;51.362;12.472;2022-11-14T07:08:29;21.15;;;8.38;;
74267;SDS011;62638;51.362;12.472;2022-11-14T07:11:11;19.45;;;7.57;;
74267;SDS011;62638;51.362;12.472;2022-11-14T07:13:50;16.58;;;7.80;;
74267;SDS011;62638;51.362;12.472;2022-11-14T07:16:25;18.45;;;7.65;;
74267;SDS011;62638;51.362;12.472;2022-11-14T07:18:55;18.70;;;8.10;;
74267;SDS011;62638;51.362;12.472;2022-11-14T07:21:21;19.80;;;8.98;;
74267;SDS011;62638;51.362;12.472;2022-11-14T07:23:47;25.77;;;10.65;;
74267;SDS011;62638;51.362;12.472;2022-11-14T07:26:12;16.67;;;7.10;;
74267;SDS011;62638;51.362;12.472;2022-11-14T07:28:38;21.27;;;8.33;;
74267;SDS011;62638;51.362;12.472;2022-11-14T07:31:06;18.50;;;8.65;;
74267;SDS011;62638;51.362;12.472;2022-11-14T07:33:33;19.88;;;8.32;;
74267;SDS011;62638;51.362;12.472;2022-11-14T07:35:58;22.33;;;9.68;;
74267;SDS011;62638;51.362;12.472;2022-11-14T07:38:24;21.20;;;8.70;;
74267;SDS011;62638;51.362;12.472;2022-11-14T07:40:55;19.03;;;8.53;;
74267;SDS011;62638;51.362;12.472;2022-11-14T07:43:22;16.65;;;9.20;;
74267;SDS011;62638;51.362;12.472;2022-11-14T07:45:48;26.33;;;9.93;;
74267;SDS011;62638;51.362;12.472;2022-11-14T07:48:13;18.00;;;7.63;;
74267;SDS011;62638;51.362;12.472;2022-11-14T07:50:40;19.25;;;6.97;;
74267;SDS011;62638;51.362;12.472;2022-11-14T07:53:05;20.50;;;7.47;;
74267;SDS011;62638;51.362;12.472;2022-11-14T07:55:31;20.90;;;7.95;;
74267;SDS011;62638;51.362;12.472;2022-11-14T07:57:58;19.92;;;7.93;;
74267;SDS011;62638;51.362;12.472;2022-11-14T08:00:24;19.17;;;7.40;;
74267;SDS011;62638;51.362;12.472;2022-11-14T08:02:49;22.38;;;8.25;;
74267;SDS011;62638;51.362;12.472;2022-11-14T08:05:15;24.17;;;8.52;;
74267;SDS011;62638;51.362;12.472;2022-11-14T08:07:40;20.48;;;8.55;;
74267;SDS011;62638;51.362;12.472;2022-11-14T08:10:06;14.70;;;7.30;;
74267;SDS011;62638;51.362;12.472;2022-11-14T08:12:31;17.45;;;6.85;;
74267;SDS011;62638;51.362;12.472;2022-11-14T08:14:57;23.53;;;9.00;;
74267;SDS011;62638;51.362;12.472;2022-11-14T08:17:22;13.67;;;7.00;;
74267;SDS011;62638;51.362;12.472;2022-11-14T08:19:48;16.33;;;7.18;;
74267;SDS011;62638;51.362;12.472;2022-11-14T08:22:13;18.90;;;8.30;;
74267;SDS011;62638;51.362;12.472;2022-11-14T08:24:39;14.50;;;6.80;;
74267;SDS011;62638;51.362;12.472;2022-11-14T08:27:04;17.30;;;7.13;;
74267;SDS011;62638;51.362;12.472;2022-11-14T08:29:29;17.67;;;7.17;;
74267;SDS011;62638;51.362;12.472;2022-11-14T08:31:54;20.20;;;6.93;;
74267;SDS011;62638;51.362;12.472;2022-11-14T08:34:20;19.25;;;7.22;;
74267;SDS011;62638;51.362;12.472;2022-11-14T08:36:46;21.45;;;8.13;;
74267;SDS011;62638;51.362;12.472;2022-11-14T08:39:12;14.80;;;6.53;;
74267;SDS011;62638;51.362;12.472;2022-11-14T08:41:37;18.27;;;6.40;;
74267;SDS011;62638;51.362;12.472;2022-11-14T08:44:02;17.00;;;6.83;;
74267;SDS011;62638;51.362;12.472;2022-11-14T08:46:28;14.20;;;6.18;;
74267;SDS011;62638;51.362;12.472;2022-11-14T08:48:53;13.70;;;6.37;;
74267;SDS011;62638;51.362;12.472;2022-11-14T08:51:18;13.03;;;7.63;;
74267;SDS011;62638;51.362;12.472;2022-11-14T08:53:43;16.10;;;6.07;;
74267;SDS011;62638;51.362;12.472;2022-11-14T08:56:09;13.83;;;6.07;;
74267;SDS011;62638;51.362;12.472;2022-11-14T08:58:35;16.83;;;6.95;;
74267;SDS011;62638;51.362;12.472;2022-11-14T09:01:01;14.00;;;6.57;;
74267;SDS011;62638;51.362;12.472;2022-11-14T09:03:28;14.93;;;5.93;;
74267;SDS011;62638;51.362;12.472;2022-11-14T09:05:54;15.95;;;6.28;;
74267;SDS011;62638;51.362;12.472;2022-11-14T09:08:19;16.90;;;6.38;;
74267;SDS011;62638;51.362;12.472;2022-11-14T09:10:45;14.52;;;6.07;;
74267;SDS011;62638;51.362;12.472;2022-11-14T09:13:10;15.35;;;6.05;;
74267;SDS011;62638;51.362;12.472;2022-11-14T09:15:35;13.73;;;6.20;;
74267;SDS011;62638;51.362;12.472;2022-11-14T09:18:01;12.37;;;5.67;;
74267;SDS011;62638;51.362;12.472;2022-11-14T09:20:26;13.60;;;6.45;;
74267;SDS011;62638;51.362;12.472;2022-11-14T09:22:56;16.73;;;5.88;;
74267;SDS011;62638;51.362;12.472;2022-11-14T09:25:22;14.98;;;5.93;;
74267;SDS011;62638;51.362;12.472;2022-11-14T09:27:47;13.87;;;5.60;;
74267;SDS011;62638;51.362;12.472;2022-11-14T09:30:13;12.40;;;5.50;;
74267;SDS011;62638;51.362;12.472;2022-11-14T09:32:38;12.45;;;5.70;;
74267;SDS011;62638;51.362;12.472;2022-11-14T09:35:04;11.98;;;5.18;;
74267;SDS011;62638;51.362;12.472;2022-11-14T09:37:30;12.35;;;6.32;;
74267;SDS011;62638;51.362;12.472;2022-11-14T09:39:55;10.52;;;5.65;;
74267;SDS011;62638;51.362;12.472;2022-11-14T09:45:23;11.02;;;4.90;;
74267;SDS011;62638;51.362;12.472;2022-11-14T09:47:50;11.18;;;5.53;;
74267;SDS011;62638;51.362;12.472;2022-11-14T09:50:21;11.82;;;4.80;;
74267;SDS011;62638;51.362;12.472;2022-11-14T09:52:54;11.15;;;5.63;;
74267;SDS011;62638;51.362;12.472;2022-11-14T09:55:29;12.48;;;6.28;;
74267;SDS011;62638;51.362;12.472;2022-11-14T09:57:55;10.57;;;5.35;;
74267;SDS011;62638;51.362;12.472;2022-11-14T10:00:22;12.55;;;5.60;;
74267;SDS011;62638;51.362;12.472;2022-11-14T10:05:27;10.13;;;5.25;;
74267;SDS011;62638;51.362;12.472;2022-11-14T10:08:04;11.73;;;5.53;;
74267;SDS011;62638;51.362;12.472;2022-11-14T10:10:53;12.82;;;6.00;;
74267;SDS011;62638;51.362;12.472;2022-11-14T10:21:53;11.80;;;4.85;;
74267;SDS011;62638;51.362;12.472;2022-11-14T10:26:58;12.07;;;5.57;;
74267;SDS011;62638;51.362;12.472;2022-11-14T10:35:02;15.15;;;7.82;;
74267;SDS011;62638;51.362;12.472;2022-11-14T10:37:36;14.48;;;6.50;;
74267;SDS011;62638;51.362;12.472;2022-11-14T10:40:22;11.80;;;6.00;;
74267;SDS011;62638;51.362;12.472;2022-11-14T10:42:50;11.43;;;5.30;;
74267;SDS011;62638;51.362;12.472;2022-11-14T10:45:25;14.23;;;7.13;;
74267;SDS011;62638;51.362;12.472;2022-11-14T10:47:59;12.48;;;5.85;;
74267;SDS011;62638;51.362;12.472;2022-11-14T10:50:28;10.60;;;5.47;;
74267;SDS011;62638;51.362;12.472;2022-11-14T10:53:05;12.55;;;5.85;;
74267;SDS011;62638;51.362;12.472;2022-11-14T10:55:44;10.05;;;4.80;;
74267;SDS011;62638;51.362;12.472;2022-11-14T10:58:13;9.50;;;5.05;;
74267;SDS011;62638;51.362;12.472;2022-11-14T11:00:39;11.15;;;5.00;;
74267;SDS011;62638;51.362;12.472;2022-11-14T11:03:04;11.43;;;6.18;;
74267;SDS011;62638;51.362;12.472;2022-11-14T11:05:31;12.35;;;6.07;;
74267;SDS011;62638;51.362;12.472;2022-11-14T11:08:10;9.63;;;5.05;;
74267;SDS011;62638;51.362;12.472;2022-11-14T11:10:56;9.23;;;4.47;;
74267;SDS011;62638;51.362;12.472;2022-11-14T11:14:00;8.15;;;4.30;;
74267;SDS011;62638;51.362;12.472;2022-11-14T11:16:26;10.57;;;4.80;;
74267;SDS011;62638;51.362;12.472;2022-11-14T11:18:52;9.50;;;4.63;;
74267;SDS011;62638;51.362;12.472;2022-11-14T11:21:32;7.90;;;4.10;;
74267;SDS011;62638;51.362;12.472;2022-11-14T11:24:12;9.43;;;4.28;;
74267;SDS011;62638;51.362;12.472;2022-11-14T11:32:36;11.00;;;4.15;;
74267;SDS011;62638;51.362;12.472;2022-11-14T11:35:02;9.13;;;4.40;;
74267;SDS011;62638;51.362;12.472;2022-11-14T11:37:48;9.85;;;4.30;;
74267;SDS011;62638;51.362;12.472;2022-11-14T11:40:23;8.43;;;3.75;;
74267;SDS011;62638;51.362;12.472;2022-11-14T11:45:24;8.38;;;4.13;;
74267;SDS011;62638;51.362;12.472;2022-11-14T11:47:56;8.65;;;4.00;;
74267;SDS011;62638;51.362;12.472;2022-11-14T11:50:25;8.75;;;3.97;;
74267;SDS011;62638;51.362;12.472;2022-11-14T11:55:52;10.68;;;4.40;;
74267;SDS011;62638;51.362;12.472;2022-11-14T12:01:12;9.63;;;4.88;;
74267;SDS011;62638;51.362;12.472;2022-11-14T12:03:40;9.57;;;4.65;;
74267;SDS011;62638;51.362;12.472;2022-11-14T12:06:17;7.80;;;3.83;;
74267;SDS011;62638;51.362;12.472;2022-11-14T12:11:44;9.07;;;4.05;;
74267;SDS011;62638;51.362;12.472;2022-11-14T12:28:34;8.02;;;3.65;;
74267;SDS011;62638;51.362;12.472;2022-11-14T12:31:03;7.38;;;3.22;;
74267;SDS011;62638;51.362;12.472;2022-11-14T12:33:35;7.57;;;3.60;;
74267;SDS011;62638;51.362;12.472;2022-11-14T12:36:05;7.07;;;3.90;;
74267;SDS011;62638;51.362;12.472;2022-11-14T12:38:39;7.93;;;3.85;;
74267;SDS011;62638;51.362;12.472;2022-11-14T12:41:09;9.93;;;4.93;;
74267;SDS011;62638;51.362;12.472;2022-11-14T12:43:40;6.95;;;3.50;;
74267;SDS011;62638;51.362;12.472;2022-11-14T12:46:09;5.85;;;3.03;;
74267;SDS011;62638;51.362;12.472;2022-11-14T12:48:41;10.60;;;4.30;;
74267;SDS011;62638;51.362;12.472;2022-11-14T12:53:54;8.52;;;4.10;;
74267;SDS011;62638;51.362;12.472;2022-11-14T12:59:12;7.38;;;3.92;;
74267;SDS011;62638;51.362;12.472;2022-11-14T13:08:00;10.88;;;3.72;;
74267;SDS011;62638;51.362;12.472;2022-11-14T13:10:40;7.00;;;3.10;;
74267;SDS011;62638;51.362;12.472;2022-11-14T13:13:07;7.93;;;3.10;;
74267;SDS011;62638;51.362;12.472;2022-11-14T13:15:59;6.57;;;3.65;;
74267;SDS011;62638;51.362;12.472;2022-11-14T13:19:19;6.13;;;2.75;;
74267;SDS011;62638;51.362;12.472;2022-11-14T13:27:23;7.40;;;3.17;;
74267;SDS011;62638;51.362;12.472;2022-11-14T13:29:50;7.45;;;3.35;;
74267;SDS011;62638;51.362;12.472;2022-11-14T13:35:49;6.20;;;2.70;;
74267;SDS011;62638;51.362;12.472;2022-11-14T13:40:52;7.07;;;3.00;;
74267;SDS011;62638;51.362;12.472;2022-11-14T13:44:22;6.28;;;3.10;;
74267;SDS011;62638;51.362;12.472;2022-11-14T13:49:52;6.00;;;2.78;;
74267;SDS011;62638;51.362;12.472;2022-11-14T13:52:25;7.28;;;2.83;;
74267;SDS011;62638;51.362;12.472;2022-11-14T13:54:55;5.55;;;3.03;;
74267;SDS011;62638;51.362;12.472;2022-11-14T13:57:34;5.40;;;2.88;;
74267;SDS011;62638;51.362;12.472;2022-11-14T14:00:11;6.53;;;2.95;;
74267;SDS011;62638;51.362;12.472;2022-11-14T14:02:45;6.88;;;3.08;;
74267;SDS011;62638;51.362;12.472;2022-11-14T14:05:47;6.57;;;2.85;;
74267;SDS011;62638;51.362;12.472;2022-11-14T14:17:14;7.20;;;2.67;;
74267;SDS011;62638;51.362;12.472;2022-11-14T14:22:21;4.97;;;2.13;;
74267;SDS011;62638;51.362;12.472;2022-11-14T14:25:36;6.97;;;2.65;;
74267;SDS011;62638;51.362;12.472;2022-11-14T14:28:18;8.10;;;2.67;;
74267;SDS011;62638;51.362;12.472;2022-11-14T14:33:38;9.23;;;2.42;;
74267;SDS011;62638;51.362;12.472;2022-11-14T14:36:15;6.53;;;3.50;;
74267;SDS011;62638;51.362;12.472;2022-11-14T14:38:49;7.93;;;3.17;;
74267;SDS011;62638;51.362;12.472;2022-11-14T14:41:30;8.75;;;3.33;;
74267;SDS011;62638;51.362;12.472;2022-11-14T14:43:56;7.40;;;3.33;;
74267;SDS011;62638;51.362;12.472;2022-11-14T14:46:30;5.63;;;3.03;;
74267;SDS011;62638;51.362;12.472;2022-11-14T14:48:57;8.52;;;3.30;;
74267;SDS011;62638;51.362;12.472;2022-11-14T14:51:29;8.88;;;3.55;;
74267;SDS011;62638;51.362;12.472;2022-11-14T14:53:56;23.27;;;8.57;;
74267;SDS011;62638;51.362;12.472;2022-11-14T14:56:23;12.00;;;4.32;;
74267;SDS011;62638;51.362;12.472;2022-11-14T14:58:50;7.40;;;3.22;;
74267;SDS011;62638;51.362;12.472;2022-11-14T15:01:16;10.43;;;3.97;;
74267;SDS011;62638;51.362;12.472;2022-11-14T15:03:45;8.70;;;3.75;;
74267;SDS011;62638;51.362;12.472;2022-11-14T15:06:20;5.55;;;2.95;;
74267;SDS011;62638;51.362;12.472;2022-11-14T15:08:46;8.25;;;3.70;;
74267;SDS011;62638;51.362;12.472;2022-11-14T15:11:13;8.38;;;3.78;;
74267;SDS011;62638;51.362;12.472;2022-11-14T15:13:39;9.38;;;4.38;;
74267;SDS011;62638;51.362;12.472;2022-11-14T15:16:06;12.00;;;3.78;;
74267;SDS011;62638;51.362;12.472;2022-11-14T15:18:32;8.93;;;4.35;;
74267;SDS011;62638;51.362;12.472;2022-11-14T15:21:08;9.10;;;4.10;;
74267;SDS011;62638;51.362;12.472;2022-11-14T15:23:37;10.02;;;4.65;;
74267;SDS011;62638;51.362;12.472;2022-11-14T15:26:04;8.07;;;3.85;;
74267;SDS011;62638;51.362;12.472;2022-11-14T15:28:40;10.65;;;5.18;;
74267;SDS011;62638;51.362;12.472;2022-11-14T15:31:11;14.70;;;5.15;;
74267;SDS011;62638;51.362;12.472;2022-11-14T15:33:41;11.35;;;5.07;;
74267;SDS011;62638;51.362;12.472;2022-11-14T15:36:07;9.82;;;4.43;;
74267;SDS011;62638;51.362;12.472;2022-11-14T15:39:04;10.95;;;4.53;;
74267;SDS011;62638;51.362;12.472;2022-11-14T15:41:30;10.77;;;4.60;;
74267;SDS011;62638;51.362;12.472;2022-11-14T15:43:57;17.45;;;4.97;;
74267;SDS011;62638;51.362;12.472;2022-11-14T15:48:57;13.43;;;4.93;;
74267;SDS011;62638;51.362;12.472;2022-11-14T15:54:27;12.05;;;5.10;;
74267;SDS011;62638;51.362;12.472;2022-11-14T15:56:57;11.35;;;4.93;;
74267;SDS011;62638;51.362;12.472;2022-11-14T15:59:30;11.70;;;5.00;;
74267;SDS011;62638;51.362;12.472;2022-11-14T16:02:01;11.98;;;5.25;;
74267;SDS011;62638;51.362;12.472;2022-11-14T16:04:45;11.85;;;5.20;;
74267;SDS011;62638;51.362;12.472;2022-11-14T16:07:12;10.73;;;4.60;;
74267;SDS011;62638;51.362;12.472;2022-11-14T16:09:38;16.67;;;7.18;;
74267;SDS011;62638;51.362;12.472;2022-11-14T16:12:04;13.70;;;5.53;;
74267;SDS011;62638;51.362;12.472;2022-11-14T16:14:30;11.40;;;4.50;;
74267;SDS011;62638;51.362;12.472;2022-11-14T16:16:55;13.97;;;6.20;;
74267;SDS011;62638;51.362;12.472;2022-11-14T16:19:20;15.98;;;6.18;;